Time;durP1;ratioP1;P1;durP2;ratioP2;P2;SDS_P1;SDS_P2;PMS_P1;PMS_P2;Temp;Humidity;BMP_temperature;BMP_pressure;BME280_temperature;BME280_humidity;BME280_pressure;Samples;Min_cycle;Max_cycle;Signal;HPM_P1;HPM_P2
2023/01/20 00:01:20;;;;;;;15.77;11.63;;;;;;;-0.25;100.00;97515.00;5053764;28;20234;-78
2023/01/20 00:03:47;;;;;;;16.53;12.07;;;;;;;-0.25;100.00;97520.19;5055612;28;20213;-78
2023/01/20 00:06:15;;;;;;;16.77;10.90;;;;;;;-0.28;100.00;97531.53;5054406;28;20212;-78
2023/01/20 00:08:41;;;;;;;15.83;11.17;;;;;;;-0.25;100.00;97529.75;5051304;28;20219;-77
2023/01/20 00:11:09;;;;;;;17.60;12.37;;;;;;;-0.29;100.00;97533.34;5053208;28;20200;-78
2023/01/20 00:13:36;;;;;;;15.50;10.97;;;;;;;-0.30;100.00;97536.84;5044811;28;20238;-78
2023/01/20 00:16:04;;;;;;;16.17;12.10;;;;;;;-0.30;100.00;97537.72;5032105;28;20213;-79
2023/01/20 00:18:30;;;;;;;17.70;12.03;;;;;;;-0.29;100.00;97539.41;5031809;28;20222;-78
2023/01/20 00:20:57;;;;;;;17.50;12.80;;;;;;;-0.25;100.00;97545.34;5030859;28;20235;-78
2023/01/20 00:23:25;;;;;;;18.33;12.10;;;;;;;-0.25;100.00;97540.97;5031285;28;20591;-80
2023/01/20 00:25:51;;;;;;;16.77;12.07;;;;;;;-0.24;100.00;97547.03;5031321;28;20216;-78
2023/01/20 00:28:17;;;;;;;18.27;11.40;;;;;;;-0.17;100.00;97543.31;5031191;28;20205;-77
2023/01/20 00:30:44;;;;;;;16.50;11.60;;;;;;;-0.21;100.00;97542.56;5030517;28;20209;-81
2023/01/20 00:33:10;;;;;;;16.57;12.23;;;;;;;-0.26;100.00;97547.06;5031149;28;20242;-79
2023/01/20 00:35:37;;;;;;;15.40;11.40;;;;;;;-0.24;100.00;97553.09;5031066;28;20216;-78
2023/01/20 00:38:04;;;;;;;15.30;11.33;;;;;;;-0.26;100.00;97554.03;5031212;28;20270;-78
2023/01/20 00:40:32;;;;;;;15.83;11.73;;;;;;;-0.28;100.00;97557.50;5030416;28;20228;-80
2023/01/20 00:42:59;;;;;;;15.93;11.67;;;;;;;-0.25;100.00;97566.09;5034148;28;20604;-80
2023/01/20 00:45:25;;;;;;;16.80;12.00;;;;;;;-0.20;100.00;97566.81;5034724;28;20213;-80
2023/01/20 00:47:52;;;;;;;15.03;11.53;;;;;;;-0.19;100.00;97563.28;5034568;28;20208;-80
2023/01/20 00:50:18;;;;;;;18.53;11.80;;;;;;;-0.16;100.00;97564.03;5033307;28;20201;-80
2023/01/20 00:52:45;;;;;;;17.10;12.60;;;;;;;-0.16;100.00;97562.25;5034527;28;20213;-80
2023/01/20 00:55:11;;;;;;;18.47;12.67;;;;;;;-0.17;100.00;97562.34;5034162;28;20212;-79
2023/01/20 00:57:39;;;;;;;15.90;11.70;;;;;;;-0.13;100.00;97564.75;5034588;28;20212;-80
2023/01/20 01:00:06;;;;;;;15.87;12.10;;;;;;;-0.16;100.00;97566.63;5033579;28;20211;-78
2023/01/20 01:02:38;;;;;;;15.87;12.10;;;;;;;-0.14;100.00;97563.97;5034107;28;20213;-78
2023/01/20 01:05:05;;;;;;;16.23;11.90;;;;;;;-0.14;100.00;97570.00;5034119;28;20224;-78
2023/01/20 01:07:31;;;;;;;16.30;11.63;;;;;;;-0.10;100.00;97572.44;5034226;28;20210;-78
2023/01/20 01:09:58;;;;;;;17.53;11.17;;;;;;;-0.12;100.00;97584.63;5033425;28;20205;-78
2023/01/20 01:12:24;;;;;;;15.50;11.47;;;;;;;-0.12;100.00;97584.63;5034198;28;20208;-78
2023/01/20 01:14:52;;;;;;;15.40;11.27;;;;;;;-0.10;100.00;97588.00;5034146;28;20236;-78
2023/01/20 01:17:21;;;;;;;17.83;13.23;;;;;;;-0.11;100.00;97588.09;5034262;28;20343;-77
2023/01/20 01:19:47;;;;;;;19.73;13.13;;;;;;;-0.04;100.00;97592.97;5033404;28;20205;-78
2023/01/20 01:22:14;;;;;;;16.90;11.70;;;;;;;-0.03;100.00;97593.84;5033975;28;20233;-79
2023/01/20 01:24:43;;;;;;;14.80;10.57;;;;;;;0.00;100.00;97597.19;5033441;28;20736;-79
2023/01/20 01:27:09;;;;;;;14.97;12.40;;;;;;;-0.01;100.00;97603.28;5034132;28;20208;-80
2023/01/20 01:29:36;;;;;;;16.87;11.47;;;;;;;-0.04;100.00;97608.56;5032871;28;20706;-78
2023/01/20 01:32:04;;;;;;;15.43;11.67;;;;;;;-0.01;100.00;97608.47;5033651;28;20204;-78
2023/01/20 01:34:30;;;;;;;16.33;11.67;;;;;;;-0.01;100.00;97613.66;5033416;28;20714;-78
2023/01/20 01:36:57;;;;;;;16.83;12.20;;;;;;;0.05;100.00;97616.03;5033744;28;20209;-78
2023/01/20 01:39:24;;;;;;;18.47;11.70;;;;;;;0.04;100.00;97616.09;5032795;28;20437;-78
2023/01/20 01:41:50;;;;;;;17.40;11.30;;;;;;;0.05;100.00;97618.63;5033518;28;20235;-78
2023/01/20 01:44:17;;;;;;;14.70;10.90;;;;;;;0.05;100.00;97613.44;5033441;28;20224;-78
2023/01/20 01:46:43;;;;;;;19.63;12.10;;;;;;;0.05;100.00;97616.03;5032939;28;20205;-78
2023/01/20 01:49:15;;;;;;;16.93;11.57;;;;;;;0.08;100.00;97622.88;5032410;28;20213;-78
2023/01/20 01:51:46;;;;;;;16.87;11.53;;;;;;;0.08;100.00;97622.88;5033324;28;20210;-78
2023/01/20 01:54:17;;;;;;;17.83;11.50;;;;;;;0.12;100.00;97620.13;5032500;28;20586;-78
2023/01/20 01:56:44;;;;;;;17.13;11.17;;;;;;;0.09;100.00;97620.25;5033218;28;20205;-78
2023/01/20 01:59:12;;;;;;;15.87;12.57;;;;;;;0.07;100.00;97626.38;5031266;28;20215;-78
2023/01/20 02:01:41;;;;;;;19.33;12.73;;;;;;;0.06;100.00;97632.47;5033062;28;20233;-78
2023/01/20 02:04:10;;;;;;;17.60;12.40;;;;;;;0.07;100.00;97629.81;5033115;28;20227;-78
2023/01/20 02:06:41;;;;;;;17.97;11.33;;;;;;;0.10;100.00;97627.13;5032724;28;20212;-78
2023/01/20 02:09:08;;;;;;;19.00;12.37;;;;;;;0.11;100.00;97626.22;5032106;28;20208;-78
2023/01/20 02:11:38;;;;;;;16.73;12.27;;;;;;;0.18;100.00;97625.09;5033186;28;20208;-78
2023/01/20 02:14:05;;;;;;;16.10;11.60;;;;;;;0.16;100.00;97632.09;5032671;28;20261;-78
2023/01/20 02:16:43;;;;;;;15.53;11.80;;;;;;;0.17;100.00;97628.59;5032807;28;20556;-78
2023/01/20 02:19:31;;;;;;;19.00;12.20;;;;;;;0.24;100.00;97634.41;5032014;28;20213;-78
2023/01/20 02:22:17;;;;;;;14.93;10.90;;;;;;;0.22;100.00;97631.00;5032982;28;20232;-78
2023/01/20 02:25:29;;;;;;;14.70;10.87;;;;;;;0.23;100.00;97630.97;5032672;28;20612;-78
2023/01/20 02:28:41;;;;;;;17.27;11.73;;;;;;;0.28;100.00;97636.84;5032386;28;20220;-78
2023/01/20 02:31:35;;;;;;;17.37;10.97;;;;;;;0.28;100.00;97644.66;5032032;28;20213;-78
2023/01/20 02:34:08;;;;;;;17.10;11.57;;;;;;;0.34;100.00;97641.81;5001839;28;20595;-78
2023/01/20 02:36:42;;;;;;;15.37;11.97;;;;;;;0.28;100.00;97644.66;5032567;28;20220;-78
2023/01/20 02:39:16;;;;;;;16.37;11.20;;;;;;;0.28;100.00;97642.03;5031711;28;20216;-78
2023/01/20 02:41:54;;;;;;;16.87;12.23;;;;;;;0.27;100.00;97640.34;5032217;28;20692;-78
2023/01/20 02:44:30;;;;;;;14.27;10.93;;;;;;;0.29;100.00;97643.75;5032216;28;20243;-78
2023/01/20 02:47:02;;;;;;;15.97;12.03;;;;;;;0.29;100.00;97643.75;5032010;28;20226;-78
2023/01/20 02:49:35;;;;;;;16.77;11.93;;;;;;;0.28;100.00;97647.25;5031531;28;20588;-78
2023/01/20 02:52:06;;;;;;;15.47;11.37;;;;;;;0.30;100.00;97647.16;5032133;28;20671;-78
2023/01/20 02:54:36;;;;;;;15.27;11.43;;;;;;;0.30;100.00;97653.22;5032110;28;20225;-78
2023/01/20 02:57:06;;;;;;;13.73;11.07;;;;;;;0.37;100.00;97652.09;5032075;28;20209;-78
2023/01/20 02:59:36;;;;;;;16.30;11.73;;;;;;;0.35;100.00;97651.31;5031091;28;20219;-78
2023/01/20 03:02:06;;;;;;;15.40;11.67;;;;;;;0.36;100.00;97659.94;5032184;28;20244;-78
2023/01/20 03:04:38;;;;;;;17.67;11.60;;;;;;;0.34;100.00;97657.41;5031316;28;20275;-78
2023/01/20 03:07:05;;;;;;;15.03;10.93;;;;;;;0.34;100.00;97667.81;5031538;28;20595;-78
2023/01/20 03:09:37;;;;;;;16.57;10.60;;;;;;;0.38;100.00;97663.34;5031087;28;20220;-78
2023/01/20 03:12:10;;;;;;;17.37;11.67;;;;;;;0.38;100.00;97664.19;5031532;28;20227;-78
2023/01/20 03:14:37;;;;;;;15.77;10.93;;;;;;;0.36;100.00;97668.59;5031695;28;20342;-78
2023/01/20 03:17:04;;;;;;;14.83;10.93;;;;;;;0.41;100.00;97669.28;5031893;28;20212;-78
2023/01/20 03:19:30;;;;;;;15.47;10.33;;;;;;;0.38;100.00;97668.53;5030848;28;20213;-78
2023/01/20 03:21:58;;;;;;;15.27;11.17;;;;;;;0.39;100.00;97671.06;5031541;28;20319;-78
2023/01/20 03:24:29;;;;;;;14.00;10.93;;;;;;;0.37;100.00;97672.88;5031335;28;20707;-78
2023/01/20 03:26:56;;;;;;;13.47;10.23;;;;;;;0.38;100.00;97674.56;5031550;28;20201;-78
2023/01/20 03:29:22;;;;;;;14.90;10.60;;;;;;;0.41;100.00;97679.69;5030872;28;20212;-78
2023/01/20 03:31:52;;;;;;;15.90;10.87;;;;;;;0.46;100.00;97677.75;5031626;28;20550;-79
2023/01/20 03:34:22;;;;;;;15.43;10.63;;;;;;;0.44;100.00;97678.72;5031380;28;20243;-79
2023/01/20 03:36:50;;;;;;;12.43;10.40;;;;;;;0.43;100.00;97677.03;5031373;28;20204;-78
2023/01/20 03:39:19;;;;;;;15.13;10.67;;;;;;;0.50;100.00;97683.69;5030467;28;20212;-78
2023/01/20 03:41:56;;;;;;;12.03;9.70;;;;;;;0.47;100.00;97686.38;5031204;28;20583;-78
2023/01/20 03:44:33;;;;;;;12.20;9.33;;;;;;;0.43;100.00;97688.25;5031337;28;20232;-78
2023/01/20 03:47:07;;;;;;;13.77;10.03;;;;;;;0.39;100.00;97691.03;5031398;28;20219;-79
2023/01/20 03:49:38;;;;;;;12.43;9.87;;;;;;;0.34;100.00;97686.00;5030525;28;20227;-78
2023/01/20 03:52:11;;;;;;;12.83;10.10;;;;;;;0.33;100.00;97702.47;5031550;28;20213;-78
2023/01/20 03:54:45;;;;;;;12.13;9.67;;;;;;;0.30;100.00;97702.59;5031244;28;20255;-78
2023/01/20 03:57:16;;;;;;;14.20;10.73;;;;;;;0.21;100.00;97697.75;5031420;28;20239;-78
2023/01/20 03:59:45;;;;;;;14.40;10.33;;;;;;;0.14;100.00;97701.44;5030406;28;20588;-78
2023/01/20 04:02:12;;;;;;;12.83;9.63;;;;;;;0.05;100.00;97706.09;5030951;28;20239;-78
2023/01/20 04:04:42;;;;;;;13.50;9.63;;;;;;;-0.05;100.00;97700.38;5031114;28;20229;-78
2023/01/20 04:07:12;;;;;;;14.03;9.80;;;;;;;-0.10;100.00;97704.03;5031343;28;20219;-78
2023/01/20 04:09:45;;;;;;;12.80;9.27;;;;;;;-0.06;100.00;97711.66;5030334;28;20224;-79
2023/01/20 04:12:11;;;;;;;13.70;10.03;;;;;;;-0.03;100.00;97713.31;5031106;28;20223;-78
2023/01/20 04:14:38;;;;;;;15.20;9.90;;;;;;;0.00;100.00;97708.03;5030819;28;20225;-79
2023/01/20 04:17:06;;;;;;;13.60;9.93;;;;;;;-0.03;100.00;97709.00;5032674;28;20216;-78
2023/01/20 04:19:33;;;;;;;12.43;9.77;;;;;;;-0.13;100.00;97715.38;5034481;28;20208;-78
2023/01/20 04:22:05;;;;;;;14.83;10.00;;;;;;;-0.22;100.00;97712.25;5035028;28;20232;-78
2023/01/20 04:24:37;;;;;;;12.63;8.97;;;;;;;-0.28;100.00;97721.97;5034955;28;20613;-79
2023/01/20 04:27:05;;;;;;;14.43;9.47;;;;;;;-0.28;100.00;97717.66;5034741;28;20231;-79
2023/01/20 04:29:32;;;;;;;11.97;9.87;;;;;;;-0.38;100.00;97720.59;5034298;28;20227;-79
2023/01/20 04:31:59;;;;;;;13.07;10.00;;;;;;;-0.38;100.00;97723.19;5035202;28;20204;-79
2023/01/20 04:34:26;;;;;;;16.87;10.73;;;;;;;-0.42;100.00;97731.97;5068013;22;20300;-78
2023/01/20 04:36:52;;;;;;;14.63;10.20;;;;;;;-0.38;100.00;97742.19;5074649;28;20222;-78
2023/01/20 04:39:19;;;;;;;14.97;10.10;;;;;;;-0.42;100.00;97734.56;5073794;28;20215;-78
2023/01/20 04:41:46;;;;;;;12.37;10.40;;;;;;;-0.44;100.00;97744.16;5074286;28;20310;-79
2023/01/20 04:44:14;;;;;;;12.90;9.57;;;;;;;-0.40;100.00;97743.16;5074531;28;20231;-79
2023/01/20 04:46:40;;;;;;;14.73;9.87;;;;;;;-0.40;100.00;97750.94;5074554;28;20213;-78
2023/01/20 04:49:06;;;;;;;12.57;9.50;;;;;;;-0.44;100.00;97754.53;5073631;28;20218;-78
2023/01/20 04:51:33;;;;;;;12.37;9.43;;;;;;;-0.46;100.00;97758.91;5073866;28;20688;-78
2023/01/20 04:54:00;;;;;;;13.27;9.67;;;;;;;-0.51;100.00;97758.25;5074073;28;20227;-78
2023/01/20 04:56:27;;;;;;;13.53;9.57;;;;;;;-0.55;100.00;97765.25;5074366;28;20211;-79
2023/01/20 04:58:53;;;;;;;16.53;10.63;;;;;;;-0.59;100.00;97773.19;5073722;28;20203;-78
2023/01/20 05:01:21;;;;;;;16.70;10.10;;;;;;;-0.57;100.00;97766.22;5073940;28;20210;-78
2023/01/20 05:03:48;;;;;;;14.00;10.13;;;;;;;-0.58;100.00;97777.47;5073883;28;20608;-78
2023/01/20 05:06:14;;;;;;;13.50;10.07;;;;;;;-0.56;100.00;97783.47;5073887;28;20208;-78
2023/01/20 05:08:41;;;;;;;15.97;10.73;;;;;;;-0.51;100.00;97777.25;5073638;28;20207;-78
2023/01/20 05:11:07;;;;;;;13.67;10.90;;;;;;;-0.51;100.00;97773.81;5073757;28;20673;-77
2023/01/20 05:13:37;;;;;;;17.03;11.97;;;;;;;-0.50;100.00;97785.88;5074077;28;20227;-78
2023/01/20 05:16:05;;;;;;;15.97;11.43;;;;;;;-0.40;100.00;97785.53;5074175;28;20263;-80
2023/01/20 05:18:33;;;;;;;16.93;11.53;;;;;;;-0.35;100.00;97782.78;5073847;28;20669;-80
2023/01/20 05:21:00;;;;;;;15.67;10.97;;;;;;;-0.34;100.00;97789.69;5072872;28;20265;-79
2023/01/20 05:23:26;;;;;;;16.20;11.73;;;;;;;-0.28;100.00;97795.53;5073438;28;20239;-80
2023/01/20 05:25:53;;;;;;;16.53;11.17;;;;;;;-0.28;100.00;97798.97;5074053;28;20212;-80
2023/01/20 05:28:20;;;;;;;15.63;11.40;;;;;;;-0.24;100.00;97801.47;5072758;28;20234;-79
2023/01/20 05:30:47;;;;;;;14.20;10.43;;;;;;;-0.18;100.00;97803.88;5073078;28;20233;-80
2023/01/20 05:33:13;;;;;;;14.47;10.80;;;;;;;-0.20;100.00;97808.28;5073891;28;20329;-79
2023/01/20 05:35:41;;;;;;;15.50;10.60;;;;;;;-0.19;100.00;97809.97;5073263;28;20219;-79
2023/01/20 05:38:08;;;;;;;16.77;12.30;;;;;;;-0.17;100.00;97804.66;5073401;28;20210;-79
2023/01/20 05:40:34;;;;;;;14.83;10.47;;;;;;;-0.20;100.00;97813.47;5072900;28;20234;-79
2023/01/20 05:43:01;;;;;;;15.93;11.50;;;;;;;-0.25;100.00;97811.00;5073339;28;20241;-79
2023/01/20 05:45:27;;;;;;;16.57;10.77;;;;;;;-0.22;100.00;97812.66;5073213;28;20595;-79
2023/01/20 05:47:55;;;;;;;14.37;11.07;;;;;;;-0.23;100.00;97814.41;5073433;28;20212;-79
2023/01/20 05:50:22;;;;;;;14.03;10.80;;;;;;;-0.23;100.00;97810.97;5072361;28;20750;-79
2023/01/20 05:52:49;;;;;;;14.87;10.10;;;;;;;-0.32;100.00;97813.88;5073308;28;20207;-79
2023/01/20 05:55:16;;;;;;;13.40;10.60;;;;;;;-0.40;100.00;97818.44;5073392;28;20226;-78
2023/01/20 05:57:43;;;;;;;15.37;10.30;;;;;;;-0.48;100.00;97823.00;5073314;28;20232;-78
2023/01/20 06:00:11;;;;;;;13.70;10.23;;;;;;;-0.53;100.00;97830.09;5072546;28;20234;-78
2023/01/20 06:02:37;;;;;;;16.27;10.83;;;;;;;-0.54;100.00;97833.59;5073039;28;20278;-78
2023/01/20 06:05:05;;;;;;;15.23;10.40;;;;;;;-0.49;100.00;97836.88;5072878;28;20334;-78
2023/01/20 06:07:31;;;;;;;12.27;9.10;;;;;;;-0.47;100.00;97835.94;5073138;28;20203;-79
2023/01/20 06:09:59;;;;;;;15.23;10.30;;;;;;;-0.43;100.00;97836.72;5072050;28;20215;-79
2023/01/20 06:12:26;;;;;;;16.00;10.57;;;;;;;-0.40;100.00;97831.41;5072763;28;20264;-79
2023/01/20 06:14:52;;;;;;;14.63;10.20;;;;;;;-0.43;100.00;97836.72;5072839;28;20242;-79
2023/01/20 06:17:19;;;;;;;14.73;10.00;;;;;;;-0.52;100.00;97839.56;5072587;28;20214;-79
2023/01/20 06:19:45;;;;;;;16.83;10.60;;;;;;;-0.55;100.00;97840.50;5071719;28;20211;-79
2023/01/20 06:22:14;;;;;;;15.17;9.90;;;;;;;-0.60;100.00;97844.16;5072817;28;20234;-79
2023/01/20 06:24:40;;;;;;;14.10;11.00;;;;;;;-0.62;100.00;97840.75;5072574;28;20231;-79
2023/01/20 06:27:09;;;;;;;13.67;10.30;;;;;;;-0.67;100.00;97848.69;5072540;28;20215;-79
2023/01/20 06:29:35;;;;;;;19.60;11.20;;;;;;;-0.68;100.00;97851.31;5071912;28;20211;-79
2023/01/20 06:32:02;;;;;;;14.53;10.37;;;;;;;-0.71;100.00;97856.59;5072612;28;20208;-79
2023/01/20 06:34:28;;;;;;;14.03;9.93;;;;;;;-0.79;100.00;97859.44;5072419;28;20231;-79
2023/01/20 06:36:55;;;;;;;16.00;11.07;;;;;;;-0.75;100.00;97860.19;5072459;28;20234;-79
2023/01/20 06:39:21;;;;;;;14.80;10.83;;;;;;;-0.66;100.00;97870.28;5071268;28;20650;-79
2023/01/20 06:41:48;;;;;;;16.63;11.60;;;;;;;-0.61;100.00;97873.59;5072555;28;20565;-79
2023/01/20 06:44:16;;;;;;;13.93;10.00;;;;;;;-0.65;100.00;97877.16;5072089;28;20234;-79
2023/01/20 06:46:43;;;;;;;13.67;10.23;;;;;;;-0.71;100.00;97875.59;5072157;28;20669;-79
2023/01/20 06:49:09;;;;;;;16.77;11.00;;;;;;;-0.65;100.00;97887.53;5071391;28;20230;-79
2023/01/20 06:51:36;;;;;;;16.30;10.90;;;;;;;-0.61;100.00;97889.16;5072371;28;20214;-79
2023/01/20 06:54:02;;;;;;;14.17;10.27;;;;;;;-0.59;100.00;97897.75;5072060;28;20227;-79
2023/01/20 06:56:29;;;;;;;13.80;8.97;;;;;;;-0.66;100.00;97894.50;5071799;28;20688;-80
2023/01/20 06:58:55;;;;;;;14.20;9.40;;;;;;;-0.66;100.00;97899.69;5071409;28;20214;-78
2023/01/20 07:01:25;;;;;;;13.23;9.60;;;;;;;-0.65;100.00;97900.50;5071627;28;20226;-78
2023/01/20 07:03:51;;;;;;;14.03;10.10;;;;;;;-0.61;100.00;97915.94;5071990;28;20235;-78
2023/01/20 07:06:26;;;;;;;14.27;10.90;;;;;;;-0.54;100.00;97911.44;5071893;28;20212;-78
2023/01/20 07:08:53;;;;;;;14.33;10.03;;;;;;;-0.54;100.00;97919.22;5071042;28;20688;-78
2023/01/20 07:11:20;;;;;;;15.60;10.63;;;;;;;-0.52;100.00;97917.44;5071478;28;20213;-79
2023/01/20 07:13:46;;;;;;;16.30;10.57;;;;;;;-0.55;100.00;97915.78;5071393;28;20235;-78
2023/01/20 07:16:15;;;;;;;14.30;10.07;;;;;;;-0.62;100.00;97927.22;5071906;28;20583;-78
2023/01/20 07:18:43;;;;;;;13.17;10.30;;;;;;;-0.62;100.00;97926.41;5071681;28;20214;-78
2023/01/20 07:21:11;;;;;;;15.30;10.07;;;;;;;-0.65;100.00;97926.47;5071116;28;20214;-80
2023/01/20 07:23:37;;;;;;;16.27;10.83;;;;;;;-0.62;100.00;97929.00;5071344;28;20763;-78
2023/01/20 07:26:05;;;;;;;16.70;9.73;;;;;;;-0.62;100.00;97939.38;5071377;28;20211;-78
2023/01/20 07:28:33;;;;;;;16.67;11.23;;;;;;;-0.54;100.00;97935.66;5071333;28;20218;-80
2023/01/20 07:31:03;;;;;;;14.47;10.27;;;;;;;-0.54;100.00;97950.38;5070848;28;20204;-78
2023/01/20 07:33:30;;;;;;;16.97;10.77;;;;;;;-0.46;100.00;97953.59;5071450;28;20222;-78
2023/01/20 07:35:58;;;;;;;14.80;9.70;;;;;;;-0.44;100.00;97959.63;5071281;28;20207;-77
2023/01/20 07:38:25;;;;;;;15.13;11.10;;;;;;;-0.42;100.00;97955.22;5071359;28;20207;-77
2023/01/20 07:40:53;;;;;;;14.93;10.40;;;;;;;-0.38;100.00;97964.63;5070385;28;20689;-78
2023/01/20 07:43:20;;;;;;;15.80;10.47;;;;;;;-0.31;100.00;97966.16;5071145;28;20261;-78
2023/01/20 07:45:48;;;;;;;15.90;10.57;;;;;;;-0.29;100.00;97969.53;5071636;28;20218;-78
2023/01/20 07:48:14;;;;;;;14.43;10.37;;;;;;;-0.28;100.00;97971.22;5071352;28;20207;-78
2023/01/20 07:50:40;;;;;;;16.93;11.23;;;;;;;-0.23;100.00;97970.22;5070764;28;20217;-78
2023/01/20 07:53:08;;;;;;;16.53;11.13;;;;;;;-0.18;100.00;97975.28;5077283;28;20581;-78
2023/01/20 07:55:37;;;;;;;14.50;10.60;;;;;;;-0.15;100.00;97981.22;5077722;28;20214;-80
2023/01/20 07:58:04;;;;;;;14.63;10.53;;;;;;;-0.06;100.00;97979.22;5078267;28;20218;-86
2023/01/20 08:00:30;;;;;;;15.10;10.37;;;;;;;0.07;100.00;97984.91;5077184;28;20218;-85
2023/01/20 08:02:57;;;;;;;13.03;10.20;;;;;;;0.07;100.00;97980.53;5077942;28;20242;-84
2023/01/20 08:05:23;;;;;;;13.40;10.60;;;;;;;0.06;100.00;97989.22;5077679;28;20227;-87
2023/01/20 08:07:51;;;;;;;13.90;10.67;;;;;;;0.18;100.00;97988.84;5077666;28;20217;-82
2023/01/20 08:10:18;;;;;;;12.83;9.33;;;;;;;0.12;100.00;97996.84;5077039;28;20665;-81
2023/01/20 08:12:47;;;;;;;13.63;9.83;;;;;;;0.09;100.00;97996.94;5077946;28;20203;-85
2023/01/20 08:15:13;;;;;;;12.13;9.30;;;;;;;0.13;100.00;98006.31;5077926;28;20231;-79
2023/01/20 08:17:40;;;;;;;12.80;8.87;;;;;;;0.11;100.00;98002.06;5077733;28;20208;-78
2023/01/20 08:20:08;;;;;;;11.80;9.13;;;;;;;0.14;100.00;98002.81;5076864;28;20233;-79
2023/01/20 08:22:35;;;;;;;15.17;10.20;;;;;;;0.12;100.00;98007.22;5077398;28;20242;-79
2023/01/20 08:25:01;;;;;;;13.73;9.93;;;;;;;0.13;100.00;98008.09;5077706;28;20227;-80
2023/01/20 08:27:29;;;;;;;12.37;9.37;;;;;;;0.20;100.00;98013.03;5077604;28;20716;-78
2023/01/20 08:29:57;;;;;;;11.90;9.43;;;;;;;0.24;100.00;98009.47;5076886;28;20336;-79
2023/01/20 08:32:24;;;;;;;14.10;9.93;;;;;;;0.33;100.00;98008.31;5077778;28;20226;-79
2023/01/20 08:34:50;;;;;;;12.33;9.23;;;;;;;0.38;100.00;98016.84;5077520;28;20234;-78
2023/01/20 08:37:17;;;;;;;11.97;9.43;;;;;;;0.39;100.00;98019.38;5077370;28;20219;-78
2023/01/20 08:39:44;;;;;;;12.03;9.70;;;;;;;0.38;100.00;98020.28;5076925;28;20227;-78
2023/01/20 08:42:10;;;;;;;13.17;9.10;;;;;;;0.37;100.00;98028.97;5077572;28;20207;-78
2023/01/20 08:44:38;;;;;;;13.07;9.17;;;;;;;0.40;100.00;98018.50;5077539;28;20592;-78
2023/01/20 08:47:05;;;;;;;15.67;9.27;;;;;;;0.35;100.00;98028.19;5077515;28;20234;-79
2023/01/20 08:49:31;;;;;;;11.73;9.10;;;;;;;0.38;100.00;98030.66;5076589;28;20230;-79
2023/01/20 08:52:00;;;;;;;13.13;9.13;;;;;;;0.39;100.00;98029.78;5077707;28;20214;-79
2023/01/20 08:54:28;;;;;;;14.20;9.57;;;;;;;0.46;100.00;98043.44;5077511;28;20230;-79
2023/01/20 08:56:57;;;;;;;13.67;8.97;;;;;;;0.42;100.00;98037.50;5077598;28;20208;-79
2023/01/20 08:59:26;;;;;;;15.37;10.53;;;;;;;0.51;100.00;98038.97;5076730;28;20210;-79
2023/01/20 09:01:54;;;;;;;10.70;8.63;;;;;;;0.52;100.00;98046.72;5077236;28;20211;-75
2023/01/20 09:04:21;;;;;;;12.30;8.63;;;;;;;0.53;100.00;98045.81;5072710;28;20243;-80
2023/01/20 09:06:51;;;;;;;14.17;9.17;;;;;;;0.55;100.00;98051.81;5071706;28;20208;-80
2023/01/20 09:09:19;;;;;;;11.87;8.70;;;;;;;0.56;100.00;98060.47;5072197;28;20677;-81
2023/01/20 09:11:49;;;;;;;12.83;8.87;;;;;;;0.58;100.00;98056.06;5073206;28;20207;-80
2023/01/20 09:14:16;;;;;;;11.23;8.80;;;;;;;0.55;100.00;98050.97;5065241;28;20224;-80
2023/01/20 09:16:42;;;;;;;13.23;8.30;;;;;;;0.49;100.00;98057.19;5070084;28;20283;-80
2023/01/20 09:19:10;;;;;;;11.03;8.47;;;;;;;0.46;100.00;98062.50;5072127;28;20227;-79
2023/01/20 09:21:40;;;;;;;11.93;8.33;;;;;;;0.37;100.00;98067.97;5073907;28;20219;-76
2023/01/20 09:24:07;;;;;;;13.10;9.43;;;;;;;0.34;100.00;98068.06;5073804;28;20705;-77
2023/01/20 09:26:38;;;;;;;11.30;8.07;;;;;;;0.35;100.00;98063.72;5074193;28;20203;-76
2023/01/20 09:29:08;;;;;;;13.10;8.60;;;;;;;0.30;100.00;98074.25;5072605;28;20203;-78
2023/01/20 09:31:35;;;;;;;10.90;7.60;;;;;;;0.30;100.00;98076.84;5073792;28;20214;-77
2023/01/20 09:34:02;;;;;;;12.20;8.50;;;;;;;0.37;100.00;98087.94;5073269;28;20721;-77
2023/01/20 09:36:33;;;;;;;14.77;8.77;;;;;;;0.48;100.00;98086.69;5073752;28;20278;-77
2023/01/20 09:44:48;;;;;;;11.33;7.83;;;;;;;0.96;100.00;98081.69;5073693;28;20235;-78
2023/01/20 09:47:26;;;;;;;11.73;8.30;;;;;;;1.07;100.00;98079.63;5073595;28;20214;-79
2023/01/20 09:53:06;;;;;;;13.87;8.93;;;;;;;1.19;100.00;98082.69;5073391;28;20579;-79
2023/01/20 09:55:41;;;;;;;12.02;8.57;;;;;;;1.14;100.00;98079.38;5073291;28;20438;-80
2023/01/20 09:58:15;;;;;;;10.60;7.43;;;;;;;1.06;100.00;98081.34;5073146;28;20649;-78
2023/01/20 10:00:48;;;;;;;12.77;8.53;;;;;;;1.09;100.00;98086.47;5072614;28;20217;-80
2023/01/20 10:03:20;;;;;;;9.47;7.40;;;;;;;1.00;100.00;98086.75;5072748;28;20231;-79
2023/01/20 10:05:52;;;;;;;10.97;8.27;;;;;;;0.97;100.00;98080.81;5073026;28;20207;-78
2023/01/20 10:08:26;;;;;;;10.93;7.80;;;;;;;0.92;100.00;98077.53;5073096;28;20215;-77
2023/01/20 10:10:58;;;;;;;10.57;7.80;;;;;;;0.92;100.00;98087.94;5072106;28;20207;-77
2023/01/20 10:13:31;;;;;;;11.50;7.87;;;;;;;0.87;100.00;98090.66;5073038;28;20229;-77
2023/01/20 10:16:06;;;;;;;13.50;8.17;;;;;;;0.86;100.00;98090.72;5072352;28;20306;-77
2023/01/20 10:18:42;;;;;;;13.57;8.53;;;;;;;0.83;100.00;98094.28;5072610;28;20211;-78
2023/01/20 10:21:13;;;;;;;11.70;8.97;;;;;;;0.80;100.00;98094.34;5072089;28;20218;-77
2023/01/20 10:23:46;;;;;;;12.02;9.05;;;;;;;0.77;100.00;98097.06;5072396;28;20454;-78
2023/01/20 10:26:16;;;;;;;11.93;9.53;;;;;;;0.74;100.00;98094.53;5072550;28;20578;-78
2023/01/20 10:28:47;;;;;;;10.37;9.00;;;;;;;0.73;100.00;98092.84;5072387;28;20312;-78
2023/01/20 10:31:17;;;;;;;12.67;9.47;;;;;;;0.76;100.00;98097.97;5072473;28;20207;-78
2023/01/20 10:33:47;;;;;;;12.13;8.53;;;;;;;0.82;100.00;98092.56;5072269;28;20606;-79
2023/01/20 10:36:19;;;;;;;11.73;8.53;;;;;;;0.82;100.00;98087.38;5080145;22;20614;-81
2023/01/20 10:38:53;;;;;;;12.30;7.83;;;;;;;0.85;100.00;98092.47;5051831;28;20216;-81
2023/01/20 10:41:26;;;;;;;12.40;8.20;;;;;;;0.83;100.00;98088.19;5052185;28;20219;-81
2023/01/20 10:43:53;;;;;;;10.03;7.60;;;;;;;0.85;100.00;98092.47;5052240;28;20706;-78
2023/01/20 10:46:41;;;;;;;11.00;8.80;;;;;;;1.00;100.00;98085.91;5052316;28;20239;-79
2023/01/20 10:49:45;;;;;;;11.57;8.13;;;;;;;1.07;100.00;98088.28;5051514;28;20224;-78
2023/01/20 10:52:22;;;;;;;12.87;9.37;;;;;;;1.10;100.00;98085.56;4970892;28;20216;-78
2023/01/20 10:55:01;;;;;;;14.33;9.13;;;;;;;1.09;100.00;98086.47;5042638;28;20212;-78
2023/01/20 10:57:28;;;;;;;12.33;8.27;;;;;;;1.12;100.00;98090.72;5052057;28;20228;-78
2023/01/20 11:00:00;;;;;;;15.23;8.93;;;;;;;1.12;100.00;98088.97;5051278;28;20215;-78
2023/01/20 11:02:30;;;;;;;10.70;8.13;;;;;;;1.15;100.00;98090.63;5051830;28;20216;-76
2023/01/20 11:04:59;;;;;;;10.87;7.03;;;;;;;1.23;100.00;98073.84;5051806;28;20235;-80
2023/01/20 11:07:27;;;;;;;8.83;7.20;;;;;;;1.25;100.00;98071.19;5052099;28;20232;-81
2023/01/20 11:09:55;;;;;;;10.53;7.13;;;;;;;1.30;100.00;98075.34;5051195;28;20215;-81
2023/01/20 11:12:25;;;;;;;10.63;8.37;;;;;;;1.32;100.00;98073.56;5051797;28;20205;-81
2023/01/20 11:14:54;;;;;;;10.70;7.70;;;;;;;1.30;98.77;98064.91;5051605;28;20201;-82
2023/01/20 11:17:21;;;;;;;11.07;7.73;;;;;;;1.36;98.37;98064.72;5051777;28;20573;-83
2023/01/20 11:19:51;;;;;;;10.87;6.93;;;;;;;1.45;97.16;98068.75;5050865;28;20208;-83
2023/01/20 11:22:26;;;;;;;9.20;5.57;;;;;;;1.55;95.51;98059.75;5051750;28;20215;-84
2023/01/20 11:24:57;;;;;;;8.60;6.20;;;;;;;1.49;96.26;98065.16;5051620;28;20231;-85
2023/01/20 11:27:28;;;;;;;9.67;5.63;;;;;;;1.48;96.55;98074.72;5050709;28;20616;-82
2023/01/20 11:29:59;;;;;;;6.07;5.00;;;;;;;1.47;95.61;98067.81;5050680;28;20231;-79
2023/01/20 11:32:30;;;;;;;8.03;5.33;;;;;;;1.51;95.86;98069.41;5051701;28;20219;-80
2023/01/20 11:34:58;;;;;;;10.80;6.67;;;;;;;1.60;95.51;98069.09;5051325;28;20241;-80